Briefing drone pour Le puy-en-velay (LFHP)

Rechercher une autre localisation

Conditions de vol :


Nous sommes le : Lundi 27 juin 2022
Il est 11:16 UTC (13:16 LT)

Lever de soleil : 03:33 UTC (05:33 LT)
Coucher de soleil : 20:01 UTC (22:01 LT)

Météo

L'essentiel des conditions de vol

VIGILANCE MÉTÉO FRANCE - Haute-Loire (43)
Pas de vigilances particulieres
CARTES DES FRONTS
METAR de LFHP
LFHP 271100Z AUTO 30006KT 240V330 9999 FEW028/// OVC094/// ///TCU 17/12 Q1021

Date d'émission: 27/06/2022
Heure d'émission: 11:00 UTC
Vent: 300° (variable du 240° au 330°) pour 6 KT (11 km/h)
Visibilité horizontale: > 10 km
Plafond :
- Peu de nuages à 2800ft (853m)
- Couvert à 9400ft (2865m)
Température: 17 °C
Point de rosée: 12 °C
Humidité: 72%
Pression (QNH): 1021 hPa
Prévision 24h pour Le puy-en-velay
Vent : 348° pour 2 KT (8 km/h)
Temperature Maxi: 13 °C
Temperature Min: 13 °C
Humidité : 97%
Condition : Couvert



Warning: count(): Parameter must be an array or an object that implements Countable in /homepages/6/d509196549/htdocs/droneoxygene/briefing.php on line 743
WEBCAM POUR LE PUY-EN-VELAY

Réglementation

Voler en sécurité

CARTES AERONAUTIQUE 1/500.000
CARTES VAC (LFHP)
SUP AIP




Chargement des AIP...
NOTAM (LE PUY-EN-VELAY + Terrain à proximité / FIR )




Chargement des NOTAMS...
CONTACT PREFECTURE 43


Avertissement : Les données mises à disposition sont indicatives. Oxygène Drone ne pourra être tenu responsable de dégâts causés aux biens et aux personnes.